sensor_id;sensor_type;location;lat;lon;timestamp;pressure;altitude;pressure_sealevel;temperature;humidity
76311;BME280;76681;59.304;18.294;2024-03-08T00:01:34;102741.06;;;-1.74;66.44
76311;BME280;76681;59.304;18.294;2024-03-08T00:04:01;102735.84;;;-1.76;66.66
76311;BME280;76681;59.304;18.294;2024-03-08T00:06:28;102733.09;;;-1.79;66.76
76311;BME280;76681;59.304;18.294;2024-03-08T00:08:56;102738.13;;;-1.80;66.74
76311;BME280;76681;59.304;18.294;2024-03-08T00:11:23;102734.59;;;-1.82;66.75
76311;BME280;76681;59.304;18.294;2024-03-08T00:13:51;102732.81;;;-1.83;66.81
76311;BME280;76681;59.304;18.294;2024-03-08T00:16:19;102732.75;;;-1.85;66.75
76311;BME280;76681;59.304;18.294;2024-03-08T00:18:45;102733.50;;;-1.86;67.07
76311;BME280;76681;59.304;18.294;2024-03-08T00:21:12;102724.88;;;-1.88;67.15
76311;BME280;76681;59.304;18.294;2024-03-08T00:23:40;102729.81;;;-1.91;67.20
76311;BME280;76681;59.304;18.294;2024-03-08T00:26:09;102724.69;;;-1.91;67.31
76311;BME280;76681;59.304;18.294;2024-03-08T00:28:36;102718.28;;;-1.98;66.91
76311;BME280;76681;59.304;18.294;2024-03-08T00:31:03;102719.34;;;-1.94;67.41
76311;BME280;76681;59.304;18.294;2024-03-08T00:33:30;102724.47;;;-1.94;67.27
76311;BME280;76681;59.304;18.294;2024-03-08T00:35:57;102720.94;;;-1.96;67.15
76311;BME280;76681;59.304;18.294;2024-03-08T00:38:23;102714.03;;;-1.97;67.64
76311;BME280;76681;59.304;18.294;2024-03-08T00:40:50;102710.50;;;-1.99;66.92
76311;BME280;76681;59.304;18.294;2024-03-08T00:43:19;102718.97;;;-2.00;67.44
76311;BME280;76681;59.304;18.294;2024-03-08T00:45:45;102713.84;;;-2.00;67.70
76311;BME280;76681;59.304;18.294;2024-03-08T00:48:12;102723.22;;;-2.01;67.34
76311;BME280;76681;59.304;18.294;2024-03-08T00:50:39;102715.47;;;-2.02;67.14
76311;BME280;76681;59.304;18.294;2024-03-08T00:53:06;102705.78;;;-2.06;67.13
76311;BME280;76681;59.304;18.294;2024-03-08T00:55:33;102715.25;;;-2.05;67.47
76311;BME280;76681;59.304;18.294;2024-03-08T00:58:00;102706.78;;;-2.04;67.32
76311;BME280;76681;59.304;18.294;2024-03-08T01:00:29;102708.34;;;-2.06;67.60
76311;BME280;76681;59.304;18.294;2024-03-08T01:02:56;102700.66;;;-2.06;67.61
76311;BME280;76681;59.304;18.294;2024-03-08T01:05:24;102704.81;;;-2.08;67.49
76311;BME280;76681;59.304;18.294;2024-03-08T01:07:51;102698.91;;;-2.07;67.47
76311;BME280;76681;59.304;18.294;2024-03-08T01:10:18;102697.91;;;-2.09;67.48
76311;BME280;76681;59.304;18.294;2024-03-08T01:12:44;102697.84;;;-2.11;67.20
76311;BME280;76681;59.304;18.294;2024-03-08T01:15:11;102704.63;;;-2.11;67.41
76311;BME280;76681;59.304;18.294;2024-03-08T01:17:40;102704.56;;;-2.13;67.92
76311;BME280;76681;59.304;18.294;2024-03-08T01:20:07;102699.41;;;-2.13;67.91
76311;BME280;76681;59.304;18.294;2024-03-08T01:22:36;102688.88;;;-2.18;67.77
76311;BME280;76681;59.304;18.294;2024-03-08T01:25:03;102699.31;;;-2.15;67.70
76311;BME280;76681;59.304;18.294;2024-03-08T01:27:31;102693.31;;;-2.15;67.66
76311;BME280;76681;59.304;18.294;2024-03-08T01:29:58;102685.53;;;-2.17;68.20
76311;BME280;76681;59.304;18.294;2024-03-08T01:32:25;102676.50;;;-2.25;67.25
76311;BME280;76681;59.304;18.294;2024-03-08T01:34:53;102697.56;;;-2.16;67.62
76311;BME280;76681;59.304;18.294;2024-03-08T01:37:20;102693.22;;;-2.17;67.59
76311;BME280;76681;59.304;18.294;2024-03-08T01:39:47;102688.00;;;-2.18;67.44
76311;BME280;76681;59.304;18.294;2024-03-08T01:42:14;102672.06;;;-2.27;67.58
76311;BME280;76681;59.304;18.294;2024-03-08T01:44:43;102692.25;;;-2.19;68.13
76311;BME280;76681;59.304;18.294;2024-03-08T01:47:10;102682.69;;;-2.21;67.59
76311;BME280;76681;59.304;18.294;2024-03-08T01:49:37;102687.81;;;-2.21;67.83
76311;BME280;76681;59.304;18.294;2024-03-08T01:52:06;102680.00;;;-2.23;67.59
76311;BME280;76681;59.304;18.294;2024-03-08T01:54:33;102680.13;;;-2.21;67.50
76311;BME280;76681;59.304;18.294;2024-03-08T01:57:01;102676.50;;;-2.25;68.02
76311;BME280;76681;59.304;18.294;2024-03-08T01:59:28;102685.13;;;-2.23;67.79
76311;BME280;76681;59.304;18.294;2024-03-08T02:01:55;102680.00;;;-2.23;67.67
76311;BME280;76681;59.304;18.294;2024-03-08T02:04:27;102676.50;;;-2.25;67.63
76311;BME280;76681;59.304;18.294;2024-03-08T02:06:56;102678.25;;;-2.24;67.73
76311;BME280;76681;59.304;18.294;2024-03-08T02:09:25;102671.38;;;-2.25;67.51
76311;BME280;76681;59.304;18.294;2024-03-08T02:11:51;102669.56;;;-2.26;68.02
76311;BME280;76681;59.304;18.294;2024-03-08T02:14:20;102667.00;;;-2.26;68.29
76311;BME280;76681;59.304;18.294;2024-03-08T02:16:47;102669.56;;;-2.26;68.31
76311;BME280;76681;59.304;18.294;2024-03-08T02:19:13;102662.69;;;-2.27;67.82
76311;BME280;76681;59.304;18.294;2024-03-08T02:21:42;102665.16;;;-2.28;67.57
76311;BME280;76681;59.304;18.294;2024-03-08T02:24:12;102663.56;;;-2.26;68.07
76311;BME280;76681;59.304;18.294;2024-03-08T02:26:40;102667.00;;;-2.26;67.82
76311;BME280;76681;59.304;18.294;2024-03-08T02:29:08;102660.13;;;-2.27;67.92
76311;BME280;76681;59.304;18.294;2024-03-08T02:31:34;102662.75;;;-2.25;67.43
76311;BME280;76681;59.304;18.294;2024-03-08T02:34:01;102662.69;;;-2.27;68.05
76311;BME280;76681;59.304;18.294;2024-03-08T02:36:28;102667.00;;;-2.26;67.79
76311;BME280;76681;59.304;18.294;2024-03-08T02:38:57;102661.00;;;-2.26;67.54
76311;BME280;76681;59.304;18.294;2024-03-08T02:41:23;102657.56;;;-2.27;67.58
76311;BME280;76681;59.304;18.294;2024-03-08T02:43:50;102667.81;;;-2.27;67.88
76311;BME280;76681;59.304;18.294;2024-03-08T02:46:18;102657.56;;;-2.27;67.33
76311;BME280;76681;59.304;18.294;2024-03-08T02:48:44;102657.56;;;-2.27;68.34
76311;BME280;76681;59.304;18.294;2024-03-08T02:51:12;102658.44;;;-2.26;68.30
76311;BME280;76681;59.304;18.294;2024-03-08T02:53:39;102658.38;;;-2.28;68.35
76311;BME280;76681;59.304;18.294;2024-03-08T02:56:07;102648.88;;;-2.29;68.28
76311;BME280;76681;59.304;18.294;2024-03-08T02:58:38;102653.25;;;-2.28;68.16
76311;BME280;76681;59.304;18.294;2024-03-08T03:01:05;102656.56;;;-2.29;68.26
76311;BME280;76681;59.304;18.294;2024-03-08T03:03:32;102656.56;;;-2.29;68.04
76311;BME280;76681;59.304;18.294;2024-03-08T03:05:59;102652.25;;;-2.30;67.85
76311;BME280;76681;59.304;18.294;2024-03-08T03:08:26;102652.16;;;-2.31;68.35
76311;BME280;76681;59.304;18.294;2024-03-08T03:10:53;102642.50;;;-2.36;67.55
76311;BME280;76681;59.304;18.294;2024-03-08T03:13:23;102651.25;;;-2.32;67.69
76311;BME280;76681;59.304;18.294;2024-03-08T03:15:50;102644.38;;;-2.33;67.96
76311;BME280;76681;59.304;18.294;2024-03-08T03:18:17;102643.50;;;-2.33;67.93
76311;BME280;76681;59.304;18.294;2024-03-08T03:20:46;102648.53;;;-2.35;67.85
76311;BME280;76681;59.304;18.294;2024-03-08T03:23:14;102647.63;;;-2.36;67.97
76311;BME280;76681;59.304;18.294;2024-03-08T03:25:45;102636.16;;;-2.42;68.14
76311;BME280;76681;59.304;18.294;2024-03-08T03:28:12;102646.75;;;-2.36;67.53
76311;BME280;76681;59.304;18.294;2024-03-08T03:30:45;102644.97;;;-2.37;68.29
76311;BME280;76681;59.304;18.294;2024-03-08T03:33:13;102649.31;;;-2.36;68.39
76311;BME280;76681;59.304;18.294;2024-03-08T03:35:40;102638.09;;;-2.38;67.78
76311;BME280;76681;59.304;18.294;2024-03-08T03:38:08;102639.84;;;-2.37;67.69
76311;BME280;76681;59.304;18.294;2024-03-08T03:40:35;102647.63;;;-2.36;68.51
76311;BME280;76681;59.304;18.294;2024-03-08T03:43:03;102642.50;;;-2.36;68.03
76311;BME280;76681;59.304;18.294;2024-03-08T03:45:31;102637.38;;;-2.36;68.27
76311;BME280;76681;59.304;18.294;2024-03-08T03:48:02;102639.06;;;-2.36;67.82
76311;BME280;76681;59.304;18.294;2024-03-08T03:50:29;102643.41;;;-2.35;67.90
76311;BME280;76681;59.304;18.294;2024-03-08T03:52:55;102639.06;;;-2.36;68.52
76311;BME280;76681;59.304;18.294;2024-03-08T03:55:22;102632.25;;;-2.36;68.73
76311;BME280;76681;59.304;18.294;2024-03-08T03:57:49;102635.69;;;-2.35;68.45
76311;BME280;76681;59.304;18.294;2024-03-08T04:00:16;102642.59;;;-2.34;68.26
76311;BME280;76681;59.304;18.294;2024-03-08T04:02:44;102637.56;;;-2.32;68.20
76311;BME280;76681;59.304;18.294;2024-03-08T04:05:13;102638.44;;;-2.32;68.62
76311;BME280;76681;59.304;18.294;2024-03-08T04:07:40;102639.31;;;-2.31;68.64
76311;BME280;76681;59.304;18.294;2024-03-08T04:10:08;102640.25;;;-2.31;68.80
76311;BME280;76681;59.304;18.294;2024-03-08T04:12:36;102640.31;;;-2.29;68.21
76311;BME280;76681;59.304;18.294;2024-03-08T04:15:04;102642.00;;;-2.30;68.87
76311;BME280;76681;59.304;18.294;2024-03-08T04:17:32;102642.88;;;-2.29;68.40
76311;BME280;76681;59.304;18.294;2024-03-08T04:20:01;102643.75;;;-2.29;68.39
76311;BME280;76681;59.304;18.294;2024-03-08T04:22:34;102642.19;;;-2.27;68.20
76311;BME280;76681;59.304;18.294;2024-03-08T04:25:01;102643.94;;;-2.26;68.83
76311;BME280;76681;59.304;18.294;2024-03-08T04:27:28;102633.69;;;-2.26;68.09
76311;BME280;76681;59.304;18.294;2024-03-08T04:29:55;102632.00;;;-2.25;68.86
76311;BME280;76681;59.304;18.294;2024-03-08T04:32:22;102632.81;;;-2.26;68.90
76311;BME280;76681;59.304;18.294;2024-03-08T04:34:49;102631.13;;;-2.26;68.40
76311;BME280;76681;59.304;18.294;2024-03-08T04:37:16;102628.56;;;-2.26;68.88
76311;BME280;76681;59.304;18.294;2024-03-08T04:39:48;102625.22;;;-2.25;68.86
76311;BME280;76681;59.304;18.294;2024-03-08T04:42:15;102626.78;;;-2.27;68.17
76311;BME280;76681;59.304;18.294;2024-03-08T04:44:43;102621.66;;;-2.27;68.35
76311;BME280;76681;59.304;18.294;2024-03-08T04:47:10;102626.78;;;-2.27;68.34
76311;BME280;76681;59.304;18.294;2024-03-08T04:49:37;102622.53;;;-2.26;69.03
76311;BME280;76681;59.304;18.294;2024-03-08T04:52:04;102622.53;;;-2.26;68.81
76311;BME280;76681;59.304;18.294;2024-03-08T04:54:32;102618.28;;;-2.26;69.07
76311;BME280;76681;59.304;18.294;2024-03-08T04:57:01;102622.66;;;-2.25;68.29
76311;BME280;76681;59.304;18.294;2024-03-08T04:59:30;102618.28;;;-2.26;68.51
76311;BME280;76681;59.304;18.294;2024-03-08T05:01:57;102614.97;;;-2.25;68.48
76311;BME280;76681;59.304;18.294;2024-03-08T05:04:24;102609.84;;;-2.25;68.81
76311;BME280;76681;59.304;18.294;2024-03-08T05:06:52;102612.41;;;-2.25;68.70
76311;BME280;76681;59.304;18.294;2024-03-08T05:09:19;102621.84;;;-2.24;68.83
76311;BME280;76681;59.304;18.294;2024-03-08T05:11:46;102610.72;;;-2.24;69.37
76311;BME280;76681;59.304;18.294;2024-03-08T05:14:15;102616.72;;;-2.24;69.00
76311;BME280;76681;59.304;18.294;2024-03-08T05:16:46;102605.66;;;-2.23;68.79
76311;BME280;76681;59.304;18.294;2024-03-08T05:19:14;102611.59;;;-2.24;68.71
76311;BME280;76681;59.304;18.294;2024-03-08T05:21:42;102610.78;;;-2.23;69.40
76311;BME280;76681;59.304;18.294;2024-03-08T05:24:09;102606.56;;;-2.22;69.38
76311;BME280;76681;59.304;18.294;2024-03-08T05:26:36;102608.22;;;-2.23;69.22
76311;BME280;76681;59.304;18.294;2024-03-08T05:29:03;102613.34;;;-2.23;69.34
76311;BME280;76681;59.304;18.294;2024-03-08T05:31:36;102603.09;;;-2.23;68.64
76311;BME280;76681;59.304;18.294;2024-03-08T05:34:05;102603.09;;;-2.23;69.00
76311;BME280;76681;59.304;18.294;2024-03-08T05:36:35;102600.53;;;-2.23;69.36
76311;BME280;76681;59.304;18.294;2024-03-08T05:39:02;102608.22;;;-2.23;69.20
76311;BME280;76681;59.304;18.294;2024-03-08T05:41:32;102600.53;;;-2.23;68.77
76311;BME280;76681;59.304;18.294;2024-03-08T05:43:58;102605.66;;;-2.23;69.54
76311;BME280;76681;59.304;18.294;2024-03-08T05:46:25;102604.88;;;-2.22;69.23
76311;BME280;76681;59.304;18.294;2024-03-08T05:48:54;102609.13;;;-2.22;68.98
76311;BME280;76681;59.304;18.294;2024-03-08T05:51:23;102604.88;;;-2.22;69.55
76311;BME280;76681;59.304;18.294;2024-03-08T05:53:51;102611.78;;;-2.21;69.15
76311;BME280;76681;59.304;18.294;2024-03-08T05:56:18;102600.63;;;-2.21;69.51
76311;BME280;76681;59.304;18.294;2024-03-08T05:58:45;102606.63;;;-2.21;69.83
76311;BME280;76681;59.304;18.294;2024-03-08T06:01:14;102609.22;;;-2.21;69.10
76311;BME280;76681;59.304;18.294;2024-03-08T06:03:41;102610.97;;;-2.20;69.04
76311;BME280;76681;59.304;18.294;2024-03-08T06:06:12;102605.94;;;-2.18;69.04
76311;BME280;76681;59.304;18.294;2024-03-08T06:08:38;102606.81;;;-2.18;69.73
76311;BME280;76681;59.304;18.294;2024-03-08T06:11:05;102610.38;;;-2.16;70.00
76311;BME280;76681;59.304;18.294;2024-03-08T06:13:32;102606.22;;;-2.14;69.62
76311;BME280;76681;59.304;18.294;2024-03-08T06:15:59;102591.19;;;-2.22;69.43
76311;BME280;76681;59.304;18.294;2024-03-08T06:18:29;102612.31;;;-2.11;69.96
76311;BME280;76681;59.304;18.294;2024-03-08T06:20:56;102616.72;;;-2.09;70.05
76311;BME280;76681;59.304;18.294;2024-03-08T06:23:25;102614.28;;;-2.07;69.52
76311;BME280;76681;59.304;18.294;2024-03-08T06:25:53;102620.34;;;-2.05;70.10
76311;BME280;76681;59.304;18.294;2024-03-08T06:28:20;102615.22;;;-2.05;69.89
76311;BME280;76681;59.304;18.294;2024-03-08T06:30:46;102612.88;;;-2.02;69.26
76311;BME280;76681;59.304;18.294;2024-03-08T06:33:13;102618.06;;;-2.01;69.21
76311;BME280;76681;59.304;18.294;2024-03-08T06:35:41;102622.50;;;-1.98;70.11
76311;BME280;76681;59.304;18.294;2024-03-08T06:38:08;102618.34;;;-1.96;70.31
76311;BME280;76681;59.304;18.294;2024-03-08T06:40:38;102615.84;;;-1.95;69.93
76311;BME280;76681;59.304;18.294;2024-03-08T06:43:06;102616.84;;;-1.93;70.36
76311;BME280;76681;59.304;18.294;2024-03-08T06:45:33;102610.00;;;-1.92;70.06
76311;BME280;76681;59.304;18.294;2024-03-08T06:48:02;102610.28;;;-1.87;69.86
76311;BME280;76681;59.304;18.294;2024-03-08T06:50:31;102613.91;;;-1.84;70.21
76311;BME280;76681;59.304;18.294;2024-03-08T06:52:58;102606.22;;;-1.84;70.43
76311;BME280;76681;59.304;18.294;2024-03-08T06:55:25;102610.53;;;-1.83;70.12
76311;BME280;76681;59.304;18.294;2024-03-08T06:57:53;102616.94;;;-1.76;70.33
76311;BME280;76681;59.304;18.294;2024-03-08T07:00:20;102608.88;;;-1.82;70.33
76311;BME280;76681;59.304;18.294;2024-03-08T07:02:52;102619.84;;;-1.70;69.62
76311;BME280;76681;59.304;18.294;2024-03-08T07:05:20;102618.31;;;-1.66;70.35
76311;BME280;76681;59.304;18.294;2024-03-08T07:07:46;102621.88;;;-1.64;69.64
76311;BME280;76681;59.304;18.294;2024-03-08T07:10:14;102621.22;;;-1.60;70.47
76311;BME280;76681;59.304;18.294;2024-03-08T07:12:42;102626.53;;;-1.57;70.69
76311;BME280;76681;59.304;18.294;2024-03-08T07:15:10;102629.28;;;-1.54;70.43
76311;BME280;76681;59.304;18.294;2024-03-08T07:17:40;102627.84;;;-1.49;70.93
76311;BME280;76681;59.304;18.294;2024-03-08T07:20:10;102619.38;;;-1.48;70.26
76311;BME280;76681;59.304;18.294;2024-03-08T07:22:39;102613.69;;;-1.42;70.09
76311;BME280;76681;59.304;18.294;2024-03-08T07:25:06;102624.22;;;-1.38;70.56
76311;BME280;76681;59.304;18.294;2024-03-08T07:27:46;102621.81;;;-1.35;70.28
76311;BME280;76681;59.304;18.294;2024-03-08T07:30:14;102620.38;;;-1.30;70.34
76311;BME280;76681;59.304;18.294;2024-03-08T07:33:03;102614.63;;;-1.26;70.16
76311;BME280;76681;59.304;18.294;2024-03-08T07:35:29;102608.84;;;-1.21;70.22
76311;BME280;76681;59.304;18.294;2024-03-08T07:37:57;102610.00;;;-1.16;70.96
76311;BME280;76681;59.304;18.294;2024-03-08T07:40:25;102610.34;;;-1.10;70.73
76311;BME280;76681;59.304;18.294;2024-03-08T07:42:52;102608.09;;;-1.04;70.78
76311;BME280;76681;59.304;18.294;2024-03-08T07:45:20;102610.22;;;-0.97;71.19
76311;BME280;76681;59.304;18.294;2024-03-08T07:47:48;102606.19;;;-0.92;70.68
76311;BME280;76681;59.304;18.294;2024-03-08T07:50:16;102605.00;;;-0.82;70.80
76311;BME280;76681;59.304;18.294;2024-03-08T07:52:45;102604.59;;;-0.73;70.76
76311;BME280;76681;59.304;18.294;2024-03-08T07:55:11;102609.25;;;-0.66;70.45
76311;BME280;76681;59.304;18.294;2024-03-08T07:57:38;102607.97;;;-0.58;71.31
76311;BME280;76681;59.304;18.294;2024-03-08T08:00:06;102606.06;;;-0.46;70.57
76311;BME280;76681;59.304;18.294;2024-03-08T08:02:35;102606.53;;;-0.37;71.14
76311;BME280;76681;59.304;18.294;2024-03-08T08:05:02;102600.09;;;-0.28;71.18
76311;BME280;76681;59.304;18.294;2024-03-08T08:07:29;102601.53;;;-0.17;70.93
76311;BME280;76681;59.304;18.294;2024-03-08T08:09:56;102599.41;;;-0.08;70.64
76311;BME280;76681;59.304;18.294;2024-03-08T08:12:23;102601.59;;;0.02;71.10
76311;BME280;76681;59.304;18.294;2024-03-08T08:14:50;102606.41;;;0.12;71.21
76311;BME280;76681;59.304;18.294;2024-03-08T08:17:17;102600.94;;;0.23;70.51
76311;BME280;76681;59.304;18.294;2024-03-08T08:19:45;102599.66;;;0.32;70.94
76311;BME280;76681;59.304;18.294;2024-03-08T08:22:12;102599.38;;;0.44;70.60
76311;BME280;76681;59.304;18.294;2024-03-08T08:24:39;102598.88;;;0.51;70.50
76311;BME280;76681;59.304;18.294;2024-03-08T08:27:06;102590.75;;;0.62;70.59
76311;BME280;76681;59.304;18.294;2024-03-08T08:29:34;102590.31;;;0.70;70.76
76311;BME280;76681;59.304;18.294;2024-03-08T08:32:02;102588.97;;;0.78;70.30
76311;BME280;76681;59.304;18.294;2024-03-08T08:34:29;102592.88;;;0.88;70.73
76311;BME280;76681;59.304;18.294;2024-03-08T08:36:58;102595.00;;;0.97;70.20
76311;BME280;76681;59.304;18.294;2024-03-08T08:39:25;102591.88;;;1.04;70.74
76311;BME280;76681;59.304;18.294;2024-03-08T08:41:51;102591.41;;;1.13;70.57
76311;BME280;76681;59.304;18.294;2024-03-08T08:44:18;102593.47;;;1.20;70.51
76311;BME280;76681;59.304;18.294;2024-03-08T08:46:45;102595.47;;;1.27;69.95
76311;BME280;76681;59.304;18.294;2024-03-08T08:49:12;102594.94;;;1.34;70.24
76311;BME280;76681;59.304;18.294;2024-03-08T08:51:40;102591.75;;;1.40;69.90
76311;BME280;76681;59.304;18.294;2024-03-08T08:54:08;102582.53;;;1.45;70.12
76311;BME280;76681;59.304;18.294;2024-03-08T08:56:35;102582.72;;;1.50;69.98
76311;BME280;76681;59.304;18.294;2024-03-08T08:59:02;102582.09;;;1.55;69.97
76311;BME280;76681;59.304;18.294;2024-03-08T09:01:30;102588.28;;;1.59;69.86
76311;BME280;76681;59.304;18.294;2024-03-08T09:03:57;102581.63;;;1.64;69.47
76311;BME280;76681;59.304;18.294;2024-03-08T09:06:23;102581.81;;;1.68;69.54
76311;BME280;76681;59.304;18.294;2024-03-08T09:08:51;102581.13;;;1.73;69.43
76311;BME280;76681;59.304;18.294;2024-03-08T09:11:19;102575.28;;;1.77;69.47
76311;BME280;76681;59.304;18.294;2024-03-08T09:13:46;102570.31;;;1.81;69.37
76311;BME280;76681;59.304;18.294;2024-03-08T09:16:14;102568.75;;;1.85;69.05
76311;BME280;76681;59.304;18.294;2024-03-08T09:18:41;102572.34;;;1.88;69.16
76311;BME280;76681;59.304;18.294;2024-03-08T09:21:08;102569.13;;;1.94;69.44
76311;BME280;76681;59.304;18.294;2024-03-08T09:23:35;102571.91;;;1.99;69.20
76311;BME280;76681;59.304;18.294;2024-03-08T09:26:02;102569.47;;;2.02;69.24
76311;BME280;76681;59.304;18.294;2024-03-08T09:28:31;102564.44;;;2.05;68.88
76311;BME280;76681;59.304;18.294;2024-03-08T09:30:57;102563.63;;;2.07;68.90
76311;BME280;76681;59.304;18.294;2024-03-08T09:33:26;102569.84;;;2.11;68.73
76311;BME280;76681;59.304;18.294;2024-03-08T09:35:54;102560.50;;;2.14;68.63
76311;BME280;76681;59.304;18.294;2024-03-08T09:38:23;102561.47;;;2.17;68.72
76311;BME280;76681;59.304;18.294;2024-03-08T09:40:50;102553.84;;;2.20;68.57
76311;BME280;76681;59.304;18.294;2024-03-08T09:43:18;102553.06;;;2.22;68.56
76311;BME280;76681;59.304;18.294;2024-03-08T09:45:49;102558.41;;;2.27;68.63
76311;BME280;76681;59.304;18.294;2024-03-08T09:48:17;102556.16;;;2.34;68.25
76311;BME280;76681;59.304;18.294;2024-03-08T09:50:46;102565.19;;;2.46;68.47
76311;BME280;76681;59.304;18.294;2024-03-08T09:53:13;102555.94;;;2.51;68.35
76311;BME280;76681;59.304;18.294;2024-03-08T09:55:40;102562.00;;;2.53;68.16
76311;BME280;76681;59.304;18.294;2024-03-08T09:58:11;102556.06;;;2.54;68.16
76311;BME280;76681;59.304;18.294;2024-03-08T10:01:03;102552.72;;;2.56;67.93
76311;BME280;76681;59.304;18.294;2024-03-08T10:03:31;102554.53;;;2.59;68.04
76311;BME280;76681;59.304;18.294;2024-03-08T10:05:59;102551.19;;;2.62;68.02
76311;BME280;76681;59.304;18.294;2024-03-08T10:08:26;102555.63;;;2.66;67.90
76311;BME280;76681;59.304;18.294;2024-03-08T10:10:55;102558.41;;;2.70;67.45
76311;BME280;76681;59.304;18.294;2024-03-08T10:13:24;102552.53;;;2.74;67.18
76311;BME280;76681;59.304;18.294;2024-03-08T10:15:52;102545.72;;;2.76;66.47
76311;BME280;76681;59.304;18.294;2024-03-08T10:18:21;102551.94;;;2.81;66.36
76311;BME280;76681;59.304;18.294;2024-03-08T10:21:01;102547.81;;;2.87;66.48
76311;BME280;76681;59.304;18.294;2024-03-08T10:23:30;102551.34;;;2.89;66.29
76311;BME280;76681;59.304;18.294;2024-03-08T10:25:57;102550.66;;;2.93;66.20
76311;BME280;76681;59.304;18.294;2024-03-08T10:28:24;102555.09;;;2.97;65.98
76311;BME280;76681;59.304;18.294;2024-03-08T10:30:51;102553.44;;;2.99;66.02
76311;BME280;76681;59.304;18.294;2024-03-08T10:33:18;102553.50;;;3.00;65.63
76311;BME280;76681;59.304;18.294;2024-03-08T10:35:46;102557.03;;;3.02;65.25
76311;BME280;76681;59.304;18.294;2024-03-08T10:38:16;102558.00;;;3.06;65.46
76311;BME280;76681;59.304;18.294;2024-03-08T10:40:46;102551.19;;;3.08;65.50
76311;BME280;76681;59.304;18.294;2024-03-08T10:43:23;102561.66;;;3.11;65.47
76311;BME280;76681;59.304;18.294;2024-03-08T10:45:56;102558.22;;;3.12;65.36
76311;BME280;76681;59.304;18.294;2024-03-08T10:48:29;102557.44;;;3.13;65.32
76311;BME280;76681;59.304;18.294;2024-03-08T10:50:59;102562.63;;;3.15;64.82
76311;BME280;76681;59.304;18.294;2024-03-08T10:53:27;102555.75;;;3.15;64.56
76311;BME280;76681;59.304;18.294;2024-03-08T10:55:56;102552.28;;;3.15;64.36
76311;BME280;76681;59.304;18.294;2024-03-08T10:58:25;102560.94;;;3.15;63.62
76311;BME280;76681;59.304;18.294;2024-03-08T11:00:53;102552.38;;;3.16;64.05
76311;BME280;76681;59.304;18.294;2024-03-08T11:03:45;102557.56;;;3.18;64.03
76311;BME280;76681;59.304;18.294;2024-03-08T11:06:18;102552.38;;;3.16;64.02
76311;BME280;76681;59.304;18.294;2024-03-08T11:08:48;102546.34;;;3.17;64.11
76311;BME280;76681;59.304;18.294;2024-03-08T11:11:28;102549.88;;;3.19;64.20
76311;BME280;76681;59.304;18.294;2024-03-08T11:14:00;102546.47;;;3.20;64.28
76311;BME280;76681;59.304;18.294;2024-03-08T11:16:43;102542.16;;;3.21;64.41
76311;BME280;76681;59.304;18.294;2024-03-08T11:19:24;102549.13;;;3.22;64.17
76311;BME280;76681;59.304;18.294;2024-03-08T11:22:03;102543.06;;;3.21;64.26
76311;BME280;76681;59.304;18.294;2024-03-08T11:24:37;102540.41;;;3.20;64.13
76311;BME280;76681;59.304;18.294;2024-03-08T11:27:06;102540.53;;;3.23;64.36
76311;BME280;76681;59.304;18.294;2024-03-08T11:29:38;102538.00;;;3.24;64.35
76311;BME280;76681;59.304;18.294;2024-03-08T11:32:10;102543.19;;;3.24;63.98
76311;BME280;76681;59.304;18.294;2024-03-08T11:34:37;102532.84;;;3.24;63.66
76311;BME280;76681;59.304;18.294;2024-03-08T11:37:11;102534.59;;;3.25;63.91
76311;BME280;76681;59.304;18.294;2024-03-08T11:39:40;102537.09;;;3.24;63.85
76311;BME280;76681;59.304;18.294;2024-03-08T11:42:07;102537.16;;;3.25;64.08
76311;BME280;76681;59.304;18.294;2024-03-08T11:44:35;102536.31;;;3.26;64.00
76311;BME280;76681;59.304;18.294;2024-03-08T11:47:04;102534.59;;;3.25;63.74
76311;BME280;76681;59.304;18.294;2024-03-08T11:49:34;102535.41;;;3.24;63.43
76311;BME280;76681;59.304;18.294;2024-03-08T11:52:01;102525.06;;;3.24;63.46
76311;BME280;76681;59.304;18.294;2024-03-08T11:54:30;102510.97;;;3.16;63.41
76311;BME280;76681;59.304;18.294;2024-03-08T11:56:57;102526.72;;;3.22;63.25
76311;BME280;76681;59.304;18.294;2024-03-08T11:59:27;102532.72;;;3.21;63.10
76311;BME280;76681;59.304;18.294;2024-03-08T12:01:59;102533.53;;;3.20;63.20
76311;BME280;76681;59.304;18.294;2024-03-08T12:04:27;102532.59;;;3.18;62.93
76311;BME280;76681;59.304;18.294;2024-03-08T12:06:54;102516.81;;;3.11;63.17
76311;BME280;76681;59.304;18.294;2024-03-08T12:09:21;102534.25;;;3.16;63.37
76311;BME280;76681;59.304;18.294;2024-03-08T12:11:49;102536.06;;;3.19;63.02
76311;BME280;76681;59.304;18.294;2024-03-08T12:14:17;102532.59;;;3.18;63.08
76311;BME280;76681;59.304;18.294;2024-03-08T12:16:44;102535.13;;;3.17;62.89
76311;BME280;76681;59.304;18.294;2024-03-08T12:19:11;102529.09;;;3.16;62.66
76311;BME280;76681;59.304;18.294;2024-03-08T12:21:38;102529.88;;;3.15;62.77
76311;BME280;76681;59.304;18.294;2024-03-08T12:24:15;102522.13;;;3.15;62.77
76311;BME280;76681;59.304;18.294;2024-03-08T12:26:46;102538.50;;;3.14;62.86
76311;BME280;76681;59.304;18.294;2024-03-08T12:29:23;102530.72;;;3.14;63.05
76311;BME280;76681;59.304;18.294;2024-03-08T12:31:54;102524.69;;;3.14;62.81
76311;BME280;76681;59.304;18.294;2024-03-08T12:34:24;102522.97;;;3.14;62.98
76311;BME280;76681;59.304;18.294;2024-03-08T12:36:52;102530.72;;;3.14;63.08
76311;BME280;76681;59.304;18.294;2024-03-08T12:39:20;102528.97;;;3.13;62.93
76311;BME280;76681;59.304;18.294;2024-03-08T12:41:52;102527.19;;;3.12;63.05
76311;BME280;76681;59.304;18.294;2024-03-08T12:44:21;102528.09;;;3.13;63.21
76311;BME280;76681;59.304;18.294;2024-03-08T12:46:48;102533.28;;;3.13;62.80
76311;BME280;76681;59.304;18.294;2024-03-08T12:49:17;102525.56;;;3.14;62.99